CheckWX is a tool to help pilots better visualize weather data.  It is not intended as a substitute for an official pre-flight weather briefing.

08:02:03 UTC

KDET TAF
Coleman A Young Municipal Airport
Detroit, Michigan, USA
KDET 190520Z 1906/2006 22004KT P6SM BKN090 FM190900 22003KT P6SM SCT090 BKN250 FM191600 21007KT P6SM BKN050

Mar-19@
06:00 UTC

Mar-19 @ 06:00 UTC

Mar-19@
09:00 UTC

Mar-19 @ 09:00 UTC

KDET 190520Z 1906/2006 22004KT P6SM BKN090
Wind
  • 220° at 4 KTS
Cloud Levels
  • Broken at 9,000' AGL

Mar-19@
09:00 UTC

Mar-19 @ 09:00 UTC

Mar-19@
16:00 UTC

Mar-19 @ 16:00 UTC

FM190900 22003KT P6SM SCT090 BKN250

From

From Standard forecast or significant change

Wind
  • 220° at 3 KTS
Cloud Levels
  • Scattered at 9,000' AGL
  • Broken at 25,000' AGL

Mar-19@
16:00 UTC

Mar-19 @ 16:00 UTC

Mar-20@
06:00 UTC

Mar-20 @ 06:00 UTC

FM191600 21007KT P6SM BKN050

From

From Standard forecast or significant change

Wind
  • 210° at 7 KTS
Cloud Levels
  • Broken at 5,000' AGL